Harmony, Illinois
Current Conditions -  °F | °C
As of 6:15 AM on Friday 31 Oct 2014 (Local Time) from KMQB Reporting Station
Overcast Overcast  
Wind Chill: 28°   Ceiling: 4800
Heat Index: 39°   Visibility: 10mi
Dew Point: 25°   Wind: 26mph
Humidity: 58%   Direction: 340°NNW
Pressure: 30.24"   Gusts: 33mph
Location:  40.4155°N, 91.0269°W
Report Text: KMQB 311115Z AUTO 34023G29KT 10SM OVC048 04/M04 A3024 RMK AO2 T00391038
Loading
Personal Weather Stations






























Interactive Weather Map
Tropical Storm Tracking
New forecast layout! Learn more

10-Day Weather Forecast

Advertisements
Track Severe Weather on mobile